Terminal Aerodrome Forecast
Issued by NWS Detroit/Pontiac, MI

Home | Current Version | Previous Version | Text Only | Print | Product List | Glossary On
Versions: 1 2 3 4 5 6 7 8 9 10 11 12 13
409
FTUS43 KDTX 281126
TAFFNT
TAF
KFNT 281126Z 2812/2912 04005KT P6SM OVC120
     FM281800 06007KT 3SM SHRA OVC040
     FM282300 06007KT P6SM OVC045
     FM290800 06010KT 4SM -SHRA BR OVC012=

USA.gov is the U.S. government's official web portal to all federal, state and local government web resources and services.